createdAt,value
2023-01-30T00:01:06.028Z,100438.75
2023-01-30T00:03:34.182Z,100437.22
2023-01-30T00:06:01.963Z,100449.00
2023-01-30T00:08:32.653Z,100461.09
2023-01-30T00:11:05.025Z,100470.63
2023-01-30T00:13:34.583Z,100469.09
2023-01-30T00:16:02.548Z,100455.84
2023-01-30T00:18:31.183Z,100481.81
2023-01-30T00:20:59.696Z,100472.28
2023-01-30T00:23:28.357Z,100462.75
2023-01-30T00:25:56.601Z,100453.25
2023-01-30T00:28:24.829Z,100436.13
2023-01-30T00:30:55.562Z,100444.31
2023-01-30T00:33:27.820Z,100422.31
2023-01-30T00:35:57.065Z,100405.06
2023-01-30T00:38:25.512Z,100410.41
2023-01-30T00:40:55.068Z,100401.50
2023-01-30T00:43:55.338Z,100422.03
2023-01-30T00:46:48.249Z,100412.41
2023-01-30T00:49:16.066Z,100426.09
2023-01-30T00:51:46.694Z,100424.03
2023-01-30T00:54:14.805Z,100415.22
2023-01-30T00:56:45.097Z,100420.22
2023-01-30T00:59:12.770Z,100415.66
2023-01-30T01:01:41.817Z,100402.34
2023-01-30T01:04:10.445Z,100405.78
2023-01-30T01:06:38.209Z,100402.34
2023-01-30T01:09:06.723Z,100400.94
2023-01-30T01:11:34.573Z,100402.34
2023-01-30T01:14:03.883Z,100392.69
2023-01-30T01:16:33.032Z,100386.50
2023-01-30T01:19:07.853Z,100367.47
2023-01-30T01:21:35.501Z,100370.06
2023-01-30T01:24:03.126Z,100371.97
2023-01-30T01:26:30.895Z,100364.84
2023-01-30T01:29:00.821Z,100362.09
2023-01-30T01:31:31.317Z,100369.94
2023-01-30T01:33:59.057Z,100366.91
2023-01-30T01:37:02.403Z,100354.63
2023-01-30T01:39:20.171Z,100363.28
2023-01-30T01:41:49.602Z,100344.81
2023-01-30T01:44:17.923Z,100343.56
2023-01-30T01:46:49.718Z,100329.94
2023-01-30T01:49:23.642Z,100335.72
2023-01-30T01:51:59.904Z,100328.09
2023-01-30T01:54:34.309Z,100325.25
2023-01-30T01:57:05.985Z,100318.94
2023-01-30T01:59:41.036Z,100331.19
2023-01-30T02:02:14.093Z,100329.97
2023-01-30T02:05:06.550Z,100313.19
2023-01-30T02:07:39.041Z,100315.53
2023-01-30T02:10:09.619Z,100314.72
2023-01-30T02:12:39.053Z,100311.81
2023-01-30T02:15:08.104Z,100301.78
2023-01-30T02:17:35.842Z,100305.22
2023-01-30T02:20:08.897Z,100282.78
2023-01-30T02:23:20.607Z,100293.41
2023-01-30T02:26:14.333Z,100286.94
2023-01-30T02:29:18.352Z,100270.41
2023-01-30T02:31:53.770Z,100257.72
2023-01-30T02:34:40.758Z,100249.47
2023-01-30T02:37:18.673Z,100230.84
2023-01-30T02:40:03.141Z,100222.03
2023-01-30T02:42:39.161Z,100214.88
2023-01-30T02:45:13.390Z,100222.63
2023-01-30T02:47:48.751Z,100220.38
2023-01-30T02:50:22.156Z,100211.19
2023-01-30T02:52:50.454Z,100206.59
2023-01-30T02:55:23.242Z,100199.75
2023-01-30T02:57:51.619Z,100176.81
2023-01-30T03:00:24.644Z,100180.97
2023-01-30T03:03:18.073Z,100176.69
2023-01-30T03:06:02.956Z,100154.91
2023-01-30T03:08:40.825Z,100154.50
2023-01-30T03:11:10.578Z,100162.09
2023-01-30T03:13:49.755Z,100154.22
2023-01-30T03:16:22.277Z,100169.53
2023-01-30T03:18:51.762Z,100175.06
2023-01-30T03:21:20.503Z,100183.34
2023-01-30T03:23:48.772Z,100178.66
2023-01-30T03:26:20.979Z,100161.69
2023-01-30T03:28:51.060Z,100156.56
2023-01-30T03:31:19.199Z,100158.34
2023-01-30T03:33:47.112Z,100161.56
2023-01-30T03:36:16.489Z,100137.69
2023-01-30T03:38:44.298Z,100110.66
2023-01-30T03:41:12.085Z,100138.66
2023-01-30T03:43:40.652Z,100123.31
2023-01-30T03:46:08.459Z,100136.03
2023-01-30T03:48:36.237Z,100123.19
2023-01-30T03:51:03.959Z,100108.31
2023-01-30T03:53:33.040Z,100101.25
2023-01-30T03:56:00.794Z,100110.22
2023-01-30T03:58:32.253Z,100112.72
2023-01-30T04:01:05.115Z,100117.94
2023-01-30T04:03:34.281Z,100106.50
2023-01-30T04:06:02.040Z,100111.06
2023-01-30T04:08:30.176Z,100103.06
2023-01-30T04:10:59.359Z,100087.19
2023-01-30T04:13:27.160Z,100109.97
2023-01-30T04:15:54.884Z,100108.00
2023-01-30T04:18:48.961Z,100079.84
2023-01-30T04:21:21.951Z,100098.34
2023-01-30T04:23:49.714Z,100095.59
2023-01-30T04:26:18.825Z,100105.81
2023-01-30T04:28:46.573Z,100093.78
2023-01-30T04:31:15.182Z,100092.84
2023-01-30T04:33:58.313Z,100096.97
2023-01-30T04:36:26.113Z,100099.16
2023-01-30T04:38:54.178Z,100103.31
2023-01-30T04:41:24.091Z,100113.38
2023-01-30T04:43:54.704Z,100104.25
2023-01-30T04:46:40.411Z,100091.69
2023-01-30T04:49:08.254Z,100095.66
2023-01-30T04:51:36.025Z,100084.50
2023-01-30T04:54:03.960Z,100074.84
2023-01-30T04:56:33.752Z,100088.34
2023-01-30T04:59:01.607Z,100072.31
2023-01-30T05:01:36.308Z,100077.41
2023-01-30T05:04:05.295Z,100071.91
2023-01-30T05:06:33.980Z,100059.31
2023-01-30T05:09:01.960Z,100053.66
2023-01-30T05:11:30.891Z,100041.34
2023-01-30T05:14:00.481Z,100050.88
2023-01-30T05:16:28.552Z,100053.75
2023-01-30T05:18:56.449Z,100039.81
2023-01-30T05:21:27.712Z,100044.63
2023-01-30T05:23:56.509Z,100049.44
2023-01-30T05:26:24.560Z,100042.22
2023-01-30T05:28:53.764Z,100057.00
2023-01-30T05:31:22.986Z,100037.38
2023-01-30T05:33:52.319Z,100039.72
2023-01-30T05:36:22.603Z,100043.84
2023-01-30T05:38:50.276Z,100055.84
2023-01-30T05:41:18.932Z,100056.66
2023-01-30T05:43:51.391Z,100065.91
2023-01-30T05:46:19.253Z,100058.88
2023-01-30T05:48:48.365Z,100058.56
2023-01-30T05:51:17.811Z,100062.00
2023-01-30T05:53:45.548Z,100070.28
2023-01-30T05:56:13.409Z,100060.31
2023-01-30T05:58:41.138Z,100052.44
2023-01-30T06:01:12.571Z,100064.88
2023-01-30T06:03:40.410Z,100067.34
2023-01-30T06:06:09.767Z,100085.59
2023-01-30T06:08:37.490Z,100075.66
2023-01-30T06:11:08.079Z,100073.03
2023-01-30T06:13:36.151Z,100075.34
2023-01-30T06:16:04.255Z,100077.53
2023-01-30T06:18:31.985Z,100080.81
2023-01-30T06:20:59.843Z,100080.41
2023-01-30T06:23:29.131Z,100076.94
2023-01-30T06:25:57.247Z,100079.25
2023-01-30T06:28:26.324Z,100069.31
2023-01-30T06:30:54.853Z,100081.50
2023-01-30T06:33:22.654Z,100078.69
2023-01-30T06:35:51.771Z,100081.19
2023-01-30T06:38:20.676Z,100073.16
2023-01-30T06:40:51.510Z,100079.09
2023-01-30T06:43:19.471Z,100090.13
2023-01-30T06:45:47.222Z,100093.72
2023-01-30T06:48:15.084Z,100093.72
2023-01-30T06:50:43.004Z,100088.63
2023-01-30T06:53:11.720Z,100083.38
2023-01-30T06:55:39.479Z,100078.78
2023-01-30T06:58:10.713Z,100085.84
2023-01-30T07:00:40.459Z,100089.97
2023-01-30T07:03:11.744Z,100080.28
2023-01-30T07:05:39.869Z,100078.50
2023-01-30T07:08:07.543Z,100087.34
2023-01-30T07:10:35.919Z,100094.13
2023-01-30T07:13:03.790Z,100089.50
2023-01-30T07:15:33.200Z,100092.97
2023-01-30T07:18:01.371Z,100082.19
2023-01-30T07:20:30.186Z,100097.81
2023-01-30T07:22:58.275Z,100081.88
2023-01-30T07:25:27.904Z,100086.00
2023-01-30T07:27:57.279Z,100083.38
2023-01-30T07:30:25.306Z,100082.19
2023-01-30T07:32:56.071Z,100105.81
2023-01-30T07:35:24.570Z,100102.66
2023-01-30T07:37:52.972Z,100095.59
2023-01-30T07:40:21.783Z,100094.25
2023-01-30T07:42:57.797Z,100097.63
2023-01-30T07:45:25.706Z,100115.09
2023-01-30T07:47:54.821Z,100112.06
2023-01-30T07:50:22.523Z,100110.16
2023-01-30T07:52:50.214Z,100114.63
2023-01-30T07:55:18.121Z,100123.47
2023-01-30T07:57:45.993Z,100121.09
2023-01-30T08:00:15.301Z,100121.63
2023-01-30T08:02:43.148Z,100122.31
2023-01-30T08:05:12.311Z,100127.03
2023-01-30T08:07:40.035Z,100126.19
2023-01-30T08:10:11.624Z,100132.16
2023-01-30T08:12:40.797Z,100135.22
2023-01-30T08:15:09.658Z,100135.88
2023-01-30T08:17:37.615Z,100133.34
2023-01-30T08:20:06.367Z,100123.53
2023-01-30T08:22:35.403Z,100122.56
2023-01-30T08:25:03.137Z,100118.38
2023-01-30T08:27:30.891Z,100121.78
2023-01-30T08:29:58.570Z,100119.94
2023-01-30T08:32:26.274Z,100122.78
2023-01-30T08:34:53.976Z,100125.81
2023-01-30T08:37:21.675Z,100135.66
2023-01-30T08:39:50.685Z,100136.69
2023-01-30T08:42:18.374Z,100138.38
2023-01-30T08:44:46.075Z,100145.50
2023-01-30T08:47:13.764Z,100148.75
2023-01-30T08:49:41.461Z,100151.06
2023-01-30T08:52:09.173Z,100151.13
2023-01-30T08:54:36.866Z,100148.50
2023-01-30T08:57:06.100Z,100149.03
2023-01-30T08:59:33.868Z,100148.56
2023-01-30T09:02:01.613Z,100140.66
2023-01-30T09:04:30.641Z,100144.28
2023-01-30T09:06:58.342Z,100154.44
2023-01-30T09:09:26.077Z,100137.13
2023-01-30T09:11:53.789Z,100145.84
2023-01-30T09:14:23.463Z,100152.03
2023-01-30T09:16:55.485Z,100154.66
2023-01-30T09:19:23.970Z,100151.88
2023-01-30T09:21:51.664Z,100150.97
2023-01-30T09:24:19.859Z,100153.38
2023-01-30T09:26:48.233Z,100146.91
2023-01-30T09:29:16.096Z,100152.50
2023-01-30T09:31:45.283Z,100158.19
2023-01-30T09:34:12.976Z,100177.50
2023-01-30T09:36:40.944Z,100155.25
2023-01-30T09:39:09.000Z,100161.94
2023-01-30T09:41:50.612Z,100157.97
2023-01-30T09:44:42.893Z,100162.84
2023-01-30T09:47:13.672Z,100170.59
2023-01-30T09:49:56.297Z,100154.63
2023-01-30T09:52:31.654Z,100156.06
2023-01-30T09:55:03.494Z,100173.44
2023-01-30T09:57:31.457Z,100170.44
2023-01-30T10:00:08.373Z,100167.25
2023-01-30T10:02:51.895Z,100185.06
2023-01-30T10:05:19.828Z,100177.56
2023-01-30T10:08:04.908Z,100149.47
2023-01-30T10:10:55.006Z,100166.16
2023-01-30T10:13:50.527Z,100172.50
2023-01-30T10:16:21.341Z,100173.22
2023-01-30T10:19:23.382Z,100181.25
2023-01-30T10:22:08.616Z,100165.59
2023-01-30T10:24:48.037Z,100171.81
2023-01-30T10:27:17.721Z,100181.22
2023-01-30T10:29:49.171Z,100189.16
2023-01-30T10:32:21.142Z,100178.78
2023-01-30T10:34:54.247Z,100166.84
2023-01-30T10:37:28.544Z,100167.59
2023-01-30T10:40:04.118Z,100161.78
2023-01-30T10:42:39.551Z,100167.22
2023-01-30T10:45:13.245Z,100167.81
2023-01-30T10:47:52.031Z,100168.28
2023-01-30T10:50:24.632Z,100157.97
2023-01-30T10:53:01.609Z,100171.34
2023-01-30T10:55:38.060Z,100170.16
2023-01-30T10:58:14.481Z,100158.41
2023-01-30T11:00:48.046Z,100172.72
2023-01-30T11:03:23.001Z,100177.75
2023-01-30T11:05:53.858Z,100174.66
2023-01-30T11:08:25.230Z,100160.56
2023-01-30T11:10:54.049Z,100155.28
2023-01-30T11:13:25.191Z,100145.72
2023-01-30T11:15:55.353Z,100163.31
2023-01-30T11:19:16.840Z,100155.63
2023-01-30T11:21:23.422Z,100162.09
2023-01-30T11:23:54.724Z,100154.94
2023-01-30T11:26:29.488Z,100156.34
2023-01-30T11:28:59.946Z,100154.50
2023-01-30T11:31:41.036Z,100139.38
2023-01-30T11:34:16.109Z,100144.19
2023-01-30T11:36:47.232Z,100136.59
2023-01-30T11:39:24.128Z,100131.72
2023-01-30T11:42:01.875Z,100111.56
2023-01-30T11:44:32.047Z,100124.31
2023-01-30T11:47:01.407Z,100121.69
2023-01-30T11:49:46.889Z,100126.78
2023-01-30T11:52:29.831Z,100135.28
2023-01-30T11:55:05.408Z,100128.72
2023-01-30T11:57:41.241Z,100143.22
2023-01-30T12:00:18.549Z,100113.50
2023-01-30T12:02:49.010Z,100113.78
2023-01-30T12:05:27.187Z,100118.22
2023-01-30T12:08:13.530Z,100097.00
2023-01-30T12:10:42.881Z,100130.94
2023-01-30T12:13:17.628Z,100121.34
2023-01-30T12:15:48.512Z,100115.97
2023-01-30T12:18:24.113Z,100127.66
2023-01-30T12:20:58.852Z,100130.66
2023-01-30T12:23:40.905Z,100115.00
2023-01-30T12:26:15.005Z,100130.59
2023-01-30T12:28:48.397Z,100111.78
2023-01-30T12:31:20.971Z,100122.28
2023-01-30T12:33:49.462Z,100138.44
2023-01-30T12:36:29.489Z,100131.47
2023-01-30T12:39:07.403Z,100138.84
2023-01-30T12:41:47.087Z,100142.88
2023-01-30T12:44:34.685Z,100132.09
2023-01-30T12:47:19.579Z,100152.94
2023-01-30T12:50:03.151Z,100178.94
2023-01-30T12:52:46.988Z,100199.38
2023-01-30T12:55:31.575Z,100233.47
2023-01-30T12:58:04.190Z,100200.84
2023-01-30T13:00:50.685Z,100190.19
2023-01-30T13:03:31.542Z,100195.81
2023-01-30T13:06:11.767Z,100194.78
2023-01-30T13:08:56.724Z,100199.69
2023-01-30T13:11:41.692Z,100202.47
2023-01-30T13:14:16.972Z,100185.66
2023-01-30T13:17:00.551Z,100199.22
2023-01-30T13:19:41.225Z,100177.16
2023-01-30T13:22:16.733Z,100198.16
2023-01-30T13:24:54.235Z,100192.22
2023-01-30T13:27:25.261Z,100181.00
2023-01-30T13:29:54.790Z,100175.28
2023-01-30T13:32:34.161Z,100189.72
2023-01-30T13:35:04.597Z,100207.16
2023-01-30T13:37:33.261Z,100210.00
2023-01-30T13:40:06.031Z,100203.09
2023-01-30T13:42:42.764Z,100227.91
2023-01-30T13:45:17.955Z,100230.56
2023-01-30T13:47:54.484Z,100224.13
2023-01-30T13:50:50.718Z,100235.31
2023-01-30T13:53:23.485Z,100253.19
2023-01-30T13:55:58.335Z,100261.31
2023-01-30T13:58:43.952Z,100248.41
2023-01-30T14:01:12.496Z,100264.25
2023-01-30T14:03:41.092Z,100259.94
2023-01-30T14:06:34.674Z,100262.03
2023-01-30T14:09:06.624Z,100263.78
2023-01-30T14:11:38.154Z,100263.78
2023-01-30T14:14:27.503Z,100263.03
2023-01-30T14:16:56.953Z,100281.84
2023-01-30T14:19:35.962Z,100291.59
2023-01-30T14:22:18.313Z,100289.44
2023-01-30T14:24:46.170Z,100303.81
2023-01-30T14:27:26.447Z,100291.19
2023-01-30T14:29:57.227Z,100301.63
2023-01-30T14:32:54.221Z,100301.53
2023-01-30T14:35:27.582Z,100310.34
2023-01-30T14:38:14.438Z,100327.59
2023-01-30T14:40:49.815Z,100335.31
2023-01-30T14:43:53.374Z,100338.78
2023-01-30T14:46:58.308Z,100341.50
2023-01-30T14:49:34.067Z,100347.06
2023-01-30T14:52:03.850Z,100359.69
2023-01-30T14:54:42.077Z,100364.97
2023-01-30T14:57:20.538Z,100372.84
2023-01-30T15:00:12.086Z,100380.75
2023-01-30T15:02:48.007Z,100395.84
2023-01-30T15:05:19.717Z,100398.25
2023-01-30T15:07:50.532Z,100415.59
2023-01-30T15:10:33.566Z,100412.28
2023-01-30T15:13:27.210Z,100420.59
2023-01-30T15:16:06.965Z,100433.22
2023-01-30T15:18:52.462Z,100437.38
2023-01-30T15:21:41.711Z,100434.31
2023-01-30T15:24:25.603Z,100430.44
2023-01-30T15:27:01.284Z,100451.63
2023-01-30T15:29:49.272Z,100454.38
2023-01-30T15:32:19.681Z,100455.22
2023-01-30T15:34:54.014Z,100469.66
2023-01-30T15:37:32.759Z,100460.13
2023-01-30T15:40:20.869Z,100470.63
2023-01-30T15:42:50.983Z,100465.69
2023-01-30T15:45:29.034Z,100477.88
2023-01-30T15:48:37.091Z,100489.78
2023-01-30T15:51:06.440Z,100494.34
2023-01-30T15:53:37.136Z,100502.66
2023-01-30T15:56:10.109Z,100509.97
2023-01-30T15:58:41.236Z,100508.19
2023-01-30T16:01:10.202Z,100513.59
2023-01-30T16:03:42.629Z,100519.97
2023-01-30T16:06:25.183Z,100524.25
2023-01-30T16:09:01.430Z,100527.13
2023-01-30T16:11:37.628Z,100533.66
2023-01-30T16:14:06.315Z,100546.09
2023-01-30T16:16:36.577Z,100548.44
2023-01-30T16:19:09.025Z,100556.19
2023-01-30T16:21:41.025Z,100559.38
2023-01-30T16:24:15.516Z,100565.88
2023-01-30T16:26:45.917Z,100556.59
2023-01-30T16:29:17.392Z,100564.09
2023-01-30T16:31:47.714Z,100570.84
2023-01-30T16:34:29.709Z,100578.34
2023-01-30T16:37:03.903Z,100583.72
2023-01-30T16:39:33.249Z,100579.56
2023-01-30T16:42:02.409Z,100593.44
2023-01-30T16:44:31.435Z,100590.38
2023-01-30T16:47:01.926Z,100595.91
2023-01-30T16:49:44.510Z,100602.13
2023-01-30T16:52:20.531Z,100598.53
2023-01-30T16:54:51.184Z,100609.59
2023-01-30T16:57:28.576Z,100615.00
2023-01-30T16:59:56.645Z,100620.94
2023-01-30T17:02:29.770Z,100617.22
2023-01-30T17:05:11.632Z,100623.56
2023-01-30T17:07:40.754Z,100627.75
2023-01-30T17:10:47.549Z,100625.94
2023-01-30T17:13:32.110Z,100640.88
2023-01-30T17:16:19.351Z,100638.09
2023-01-30T17:18:47.554Z,100650.41
2023-01-30T17:21:16.184Z,100643.34
2023-01-30T17:23:48.261Z,100654.72
2023-01-30T17:26:17.012Z,100660.53
2023-01-30T17:28:44.966Z,100661.22
2023-01-30T17:31:13.769Z,100669.69
2023-01-30T17:33:42.055Z,100682.69
2023-01-30T17:36:16.223Z,100685.03
2023-01-30T17:38:45.293Z,100698.34
2023-01-30T17:41:19.405Z,100690.31
2023-01-30T17:43:49.081Z,100699.28
2023-01-30T17:46:18.058Z,100710.66
2023-01-30T17:48:45.857Z,100723.78
2023-01-30T17:51:14.310Z,100728.78
2023-01-30T17:53:42.675Z,100735.44
2023-01-30T17:56:18.831Z,100726.28
2023-01-30T17:58:46.640Z,100719.63
2023-01-30T18:01:16.218Z,100727.31
2023-01-30T18:03:45.017Z,100727.81
2023-01-30T18:06:14.656Z,100737.97
2023-01-30T18:08:43.215Z,100740.91
2023-01-30T18:11:14.705Z,100745.81
2023-01-30T18:13:43.861Z,100751.13
2023-01-30T18:16:17.967Z,100751.06
2023-01-30T18:18:45.715Z,100769.81
2023-01-30T18:21:13.379Z,100766.28
2023-01-30T18:23:41.058Z,100770.25
2023-01-30T18:26:11.623Z,100765.63
2023-01-30T18:28:39.735Z,100781.16
2023-01-30T18:31:08.819Z,100779.03
2023-01-30T18:33:36.608Z,100781.34
2023-01-30T18:36:05.955Z,100781.56
2023-01-30T18:38:33.645Z,100789.09
2023-01-30T18:41:07.766Z,100793.50
2023-01-30T18:43:35.506Z,100778.88
2023-01-30T18:46:04.985Z,100775.75
2023-01-30T18:48:34.714Z,100781.09
2023-01-30T18:51:11.747Z,100782.00
2023-01-30T18:53:40.186Z,100783.75
2023-01-30T18:56:09.402Z,100783.84
2023-01-30T18:58:37.546Z,100793.31
2023-01-30T19:01:10.876Z,100800.56
2023-01-30T19:03:39.947Z,100813.06
2023-01-30T19:06:10.655Z,100822.94
2023-01-30T19:08:39.122Z,100821.59
2023-01-30T19:11:27.975Z,100830.06
2023-01-30T19:13:55.453Z,100825.13
2023-01-30T19:16:24.928Z,100829.25
2023-01-30T19:18:54.667Z,100836.06
2023-01-30T19:21:23.462Z,100830.94
2023-01-30T19:23:51.775Z,100837.63
2023-01-30T19:26:21.696Z,100840.25
2023-01-30T19:28:50.606Z,100841.63
2023-01-30T19:31:20.368Z,100839.97
2023-01-30T19:33:53.571Z,100852.25
2023-01-30T19:36:24.541Z,100847.59
2023-01-30T19:38:52.918Z,100861.69
2023-01-30T19:41:23.047Z,100871.50
2023-01-30T19:43:51.669Z,100862.41
2023-01-30T19:46:19.775Z,100862.53
2023-01-30T19:48:48.476Z,100869.69
2023-01-30T19:51:17.467Z,100873.16
2023-01-30T19:53:47.843Z,100876.75
2023-01-30T19:56:15.672Z,100885.16
2023-01-30T19:58:43.970Z,100883.47
2023-01-30T20:01:13.704Z,100896.38
2023-01-30T20:03:42.861Z,100891.75
2023-01-30T20:06:13.223Z,100896.53
2023-01-30T20:08:41.527Z,100901.31
2023-01-30T20:11:12.734Z,100914.84
2023-01-30T20:13:41.794Z,100920.34
2023-01-30T20:16:12.013Z,100931.22
2023-01-30T20:18:41.031Z,100931.34
2023-01-30T20:21:10.651Z,100941.84
2023-01-30T20:23:38.998Z,100940.66
2023-01-30T20:26:07.895Z,100944.63
2023-01-30T20:28:37.836Z,100944.41
2023-01-30T20:31:09.510Z,100949.03
2023-01-30T20:33:37.767Z,100950.84
2023-01-30T20:36:07.687Z,100958.97
2023-01-30T20:38:39.059Z,100971.38
2023-01-30T20:41:10.082Z,100964.72
2023-01-30T20:43:40.780Z,100952.53
2023-01-30T20:46:10.761Z,100975.19
2023-01-30T20:48:39.385Z,100977.34
2023-01-30T20:51:09.477Z,100972.91
2023-01-30T20:53:38.536Z,100984.72
2023-01-30T20:56:10.490Z,100988.66
2023-01-30T20:58:39.846Z,100990.09
2023-01-30T21:01:09.467Z,100990.31
2023-01-30T21:03:37.492Z,100985.69
2023-01-30T21:06:05.963Z,100999.50
2023-01-30T21:08:34.174Z,100985.28
2023-01-30T21:11:07.039Z,101003.28
2023-01-30T21:13:35.268Z,101001.50
2023-01-30T21:16:07.265Z,101009.41
2023-01-30T21:18:38.453Z,101022.06
2023-01-30T21:21:07.179Z,101009.78
2023-01-30T21:23:35.390Z,101010.63
2023-01-30T21:26:07.952Z,101015.72
2023-01-30T21:28:36.872Z,101011.44
2023-01-30T21:31:07.944Z,101013.09
2023-01-30T21:33:35.682Z,101019.38
2023-01-30T21:36:03.840Z,101011.72
2023-01-30T21:38:49.105Z,101020.38
2023-01-30T21:41:35.826Z,101022.97
2023-01-30T21:44:03.643Z,101027.19
2023-01-30T21:46:37.773Z,101022.63
2023-01-30T21:49:06.001Z,101027.47
2023-01-30T21:51:34.135Z,101032.44
2023-01-30T21:54:03.367Z,101035.28
2023-01-30T21:56:31.900Z,101039.59
2023-01-30T21:59:00.515Z,101039.97
2023-01-30T22:01:28.970Z,101041.78
2023-01-30T22:04:00.398Z,101050.66
2023-01-30T22:06:28.742Z,101036.06
2023-01-30T22:08:56.766Z,101050.38
2023-01-30T22:11:24.745Z,101045.03
2023-01-30T22:13:52.585Z,101039.78
2023-01-30T22:16:21.649Z,101038.13
2023-01-30T22:18:53.229Z,101037.03
2023-01-30T22:21:24.751Z,101039.22
2023-01-30T22:23:54.979Z,101050.41
2023-01-30T22:26:25.560Z,101046.34
2023-01-30T22:28:55.319Z,101045.63
2023-01-30T22:31:23.834Z,101050.13
2023-01-30T22:33:53.689Z,101054.44
2023-01-30T22:36:25.349Z,101045.72
2023-01-30T22:38:53.206Z,101040.75
2023-01-30T22:41:22.697Z,101042.03
2023-01-30T22:43:53.372Z,101037.34
2023-01-30T22:46:21.324Z,101036.13
2023-01-30T22:48:49.438Z,101030.16
2023-01-30T22:51:19.484Z,101032.78
2023-01-30T22:53:49.631Z,101030.75
2023-01-30T22:56:18.880Z,101039.00
2023-01-30T22:58:48.409Z,101051.44
2023-01-30T23:01:17.894Z,101040.28
2023-01-30T23:03:46.824Z,101036.97
2023-01-30T23:06:16.579Z,101036.50
2023-01-30T23:08:46.061Z,101038.31
2023-01-30T23:11:17.714Z,101029.00
2023-01-30T23:13:47.228Z,101043.53
2023-01-30T23:16:16.028Z,101048.34
2023-01-30T23:18:58.745Z,101041.56
2023-01-30T23:21:28.378Z,101041.06
2023-01-30T23:23:58.181Z,101032.97
2023-01-30T23:26:30.326Z,101045.63
2023-01-30T23:28:58.668Z,101050.72
2023-01-30T23:31:28.544Z,101037.25
2023-01-30T23:33:56.966Z,101055.06
2023-01-30T23:36:25.029Z,101048.47
2023-01-30T23:38:54.417Z,101044.19
2023-01-30T23:41:24.133Z,101040.25
2023-01-30T23:43:53.848Z,101033.66
2023-01-30T23:46:23.898Z,101048.25
2023-01-30T23:48:53.365Z,101056.41
2023-01-30T23:51:23.917Z,101066.06
2023-01-30T23:53:52.189Z,101075.16
2023-01-30T23:56:20.871Z,101063.91
2023-01-30T23:58:49.842Z,101067.44
